Pickstown, South Dakota
Current Conditions -  °F | °C
As of 10:35 AM on Friday 31 Oct 2014 (Local Time) from KONL Reporting Station
Clear Clear  
Wind Chill: -2°   Ceiling: Unl
Heat Index: -2°   Visibility: 10mi
Dew Point: -6°   Wind: 0mph
Humidity: 74%   Direction: NA
Pressure: 30.57"   Gusts: NA
Location:  43.07°N, 98.53°W
Report Text: KONL 311535Z AUTO 00000KT 10SM CLR M02/M06 A3057 RMK AO2 T10161056
Loading
Personal Weather Stations






























Interactive Weather Map
Tropical Storm Tracking
New forecast layout! Learn more

10-Day Weather Forecast

Advertisements
Track Severe Weather on mobile